Time;durP1;ratioP1;P1;durP2;ratioP2;P2;SDS_P1;SDS_P2;PMS_P1;PMS_P2;Temp;Humidity;BMP_temperature;BMP_pressure;BME280_temperature;BME280_humidity;BME280_pressure;Samples;Min_cycle;Max_cycle;Signal;HPM_P1;HPM_P2
2023/12/14 00:01:37;;;;;;;7.40;7.10;;;8.30;99.90;;;;;;10413315;28;20229;-76
2023/12/14 00:06:40;;;;;;;6.50;6.20;;;8.20;99.90;;;;;;10411276;28;20619;-77
2023/12/14 00:11:43;;;;;;;6.63;6.33;;;8.20;99.90;;;;;;10413017;28;20222;-76
2023/12/14 00:16:45;;;;;;;7.53;7.17;;;8.30;99.90;;;;;;10411290;28;20222;-77
2023/12/14 00:21:49;;;;;;;7.67;7.27;;;8.30;99.90;;;;;;10412755;28;20570;-77
2023/12/14 00:26:51;;;;;;;7.73;7.33;;;8.30;99.90;;;;;;10412206;28;20259;-76
2023/12/14 00:31:53;;;;;;;6.93;6.63;;;8.40;99.90;;;;;;10410403;28;20214;-76
2023/12/14 00:36:57;;;;;;;6.17;5.97;;;8.40;99.90;;;;;;10438742;28;20769;-76
2023/12/14 00:41:59;;;;;;;6.60;6.20;;;8.40;99.90;;;;;;10412035;28;20221;-77
2023/12/14 00:47:02;;;;;;;7.47;7.03;;;8.50;99.90;;;;;;10411878;28;20240;-76
2023/12/14 00:52:06;;;;;;;6.20;5.80;;;8.50;99.90;;;;;;10411951;28;20694;-77
2023/12/14 00:57:09;;;;;;;6.20;5.90;;;8.60;99.90;;;;;;10411482;28;20229;-76
2023/12/14 01:02:11;;;;;;;6.30;5.90;;;8.60;99.90;;;;;;10411691;28;20221;-76
2023/12/14 01:07:15;;;;;;;6.33;6.00;;;8.70;99.90;;;;;;10405794;28;20202;-76
2023/12/14 01:12:17;;;;;;;6.50;6.10;;;8.70;99.90;;;;;;10411084;28;20222;-76
2023/12/14 01:17:19;;;;;;;6.43;6.03;;;8.70;99.90;;;;;;10409510;28;20218;-76
2023/12/14 01:22:23;;;;;;;5.53;5.33;;;8.70;99.90;;;;;;10410717;28;20228;-75
2023/12/14 01:27:25;;;;;;;5.97;5.77;;;8.70;99.90;;;;;;10409964;28;20194;-77
2023/12/14 01:32:28;;;;;;;5.83;5.60;;;8.70;99.90;;;;;;10408190;28;20218;-75
2023/12/14 01:37:31;;;;;;;6.07;5.77;;;8.70;99.90;;;;;;10423512;28;20214;-76
2023/12/14 01:42:34;;;;;;;5.87;5.57;;;8.70;99.90;;;;;;10409274;28;20576;-77
2023/12/14 01:47:36;;;;;;;6.00;5.60;;;8.70;99.90;;;;;;10410196;28;20202;-77
2023/12/14 01:52:40;;;;;;;6.47;6.13;;;8.70;99.90;;;;;;10411518;28;20640;-76
2023/12/14 01:57:42;;;;;;;6.70;6.37;;;8.80;99.90;;;;;;10410941;28;20271;-75
2023/12/14 02:02:45;;;;;;;6.30;6.00;;;8.80;99.90;;;;;;10417558;22;20236;-77
2023/12/14 02:07:49;;;;;;;6.00;5.60;;;8.80;99.90;;;;;;10427783;28;20663;-77
2023/12/14 02:12:52;;;;;;;6.67;6.00;;;8.70;99.90;;;;;;10408271;28;20276;-76
2023/12/14 02:17:54;;;;;;;6.67;6.17;;;8.70;99.90;;;;;;10407552;28;20213;-77
2023/12/14 02:22:58;;;;;;;6.17;5.87;;;8.70;99.90;;;;;;10407910;28;20226;-75
2023/12/14 02:28:00;;;;;;;5.97;5.67;;;8.70;99.90;;;;;;10407823;28;20276;-74
2023/12/14 02:33:03;;;;;;;6.30;5.70;;;8.60;99.90;;;;;;10407500;28;20244;-74
2023/12/14 02:38:06;;;;;;;5.80;5.60;;;8.70;99.90;;;;;;10407216;28;20225;-74
2023/12/14 02:43:08;;;;;;;6.17;5.77;;;8.70;99.90;;;;;;10407248;28;20276;-74
2023/12/14 02:48:11;;;;;;;6.77;6.43;;;8.70;99.90;;;;;;10406092;28;20209;-74
2023/12/14 02:53:15;;;;;;;5.63;5.40;;;8.70;99.90;;;;;;10407443;28;20219;-75
2023/12/14 02:58:17;;;;;;;6.50;5.90;;;8.70;99.90;;;;;;10406778;28;20279;-75
2023/12/14 03:03:19;;;;;;;6.40;6.00;;;8.70;99.90;;;;;;10407146;28;20727;-75
2023/12/14 03:08:23;;;;;;;7.00;6.70;;;8.80;99.90;;;;;;10407204;28;20216;-74
2023/12/14 03:13:25;;;;;;;5.93;5.63;;;8.80;99.90;;;;;;10406474;28;20562;-74
2023/12/14 03:18:27;;;;;;;6.77;6.17;;;8.80;99.90;;;;;;10407133;28;20221;-75
2023/12/14 03:23:31;;;;;;;6.20;5.90;;;8.80;99.90;;;;;;10406965;28;20632;-76
2023/12/14 03:28:33;;;;;;;6.20;5.80;;;8.80;99.90;;;;;;10406179;28;20194;-75
2023/12/14 03:33:36;;;;;;;5.97;5.77;;;8.80;99.90;;;;;;10406800;28;20226;-76
2023/12/14 03:38:40;;;;;;;5.93;5.63;;;8.80;99.90;;;;;;10405953;28;20229;-75
2023/12/14 03:43:42;;;;;;;6.23;5.93;;;8.90;99.90;;;;;;10406433;28;20716;-76
2023/12/14 03:48:44;;;;;;;6.30;5.90;;;8.90;99.90;;;;;;10406099;28;20194;-75
2023/12/14 03:53:48;;;;;;;6.77;6.37;;;8.90;99.90;;;;;;10405810;28;20217;-76
2023/12/14 03:58:50;;;;;;;7.30;6.90;;;8.90;99.90;;;;;;10407580;28;20227;-75
2023/12/14 04:03:53;;;;;;;6.87;6.47;;;8.90;99.90;;;;;;10413557;28;20710;-75
2023/12/14 04:08:56;;;;;;;7.03;6.70;;;8.90;99.90;;;;;;10395485;28;20212;-75
2023/12/14 04:13:59;;;;;;;6.40;6.10;;;8.90;99.90;;;;;;10394397;28;20224;-75
2023/12/14 04:19:02;;;;;;;5.83;5.53;;;8.80;99.90;;;;;;10412590;28;20214;-75
2023/12/14 04:24:06;;;;;;;6.37;6.10;;;8.80;99.90;;;;;;10412972;28;20611;-75
2023/12/14 04:29:09;;;;;;;6.53;6.17;;;8.90;99.90;;;;;;10413379;28;20202;-76
2023/12/14 04:34:15;;;;;;;6.70;6.30;;;8.90;99.90;;;;;;10412083;28;20217;-75
2023/12/14 04:39:19;;;;;;;6.73;6.33;;;8.90;99.90;;;;;;10412233;28;20209;-75
2023/12/14 04:44:21;;;;;;;7.47;7.10;;;8.90;99.90;;;;;;10394119;28;20244;-75
2023/12/14 04:49:24;;;;;;;6.60;6.20;;;8.90;99.90;;;;;;10411645;28;20186;-75
2023/12/14 04:54:27;;;;;;;7.67;7.27;;;8.90;99.90;;;;;;10411344;28;20218;-75
2023/12/14 04:59:30;;;;;;;8.20;7.70;;;8.90;99.90;;;;;;10393471;28;20210;-75
2023/12/14 05:04:32;;;;;;;7.80;7.00;;;9.00;99.90;;;;;;10407259;28;20234;-75
2023/12/14 05:09:36;;;;;;;8.30;7.77;;;9.00;99.90;;;;;;10406339;28;20203;-75
2023/12/14 05:14:38;;;;;;;8.67;8.17;;;9.10;99.90;;;;;;10391405;28;20213;-75
2023/12/14 05:19:41;;;;;;;9.13;8.43;;;9.10;99.90;;;;;;10410022;28;20773;-75
2023/12/14 05:24:47;;;;;;;9.40;8.67;;;9.00;99.90;;;;;;10409917;28;20217;-75
2023/12/14 05:29:49;;;;;;;9.67;8.87;;;9.10;99.90;;;;;;10410163;28;20690;-75
2023/12/14 05:34:52;;;;;;;10.93;10.07;;;9.10;99.90;;;;;;10409139;28;20230;-76
2023/12/14 05:39:55;;;;;;;8.83;8.30;;;9.10;99.90;;;;;;10408832;28;20222;-76
2023/12/14 05:44:58;;;;;;;11.20;10.40;;;9.10;99.90;;;;;;10409122;28;20229;-75
2023/12/14 05:50:00;;;;;;;9.60;8.93;;;9.10;99.90;;;;;;10408819;28;20190;-75
2023/12/14 05:55:04;;;;;;;10.00;9.20;;;9.10;99.90;;;;;;10406154;28;20593;-75
2023/12/14 06:00:08;;;;;;;10.77;9.93;;;9.20;99.90;;;;;;10387490;28;20225;-75
2023/12/14 06:05:10;;;;;;;9.47;8.67;;;9.20;99.90;;;;;;10394411;28;20229;-75
2023/12/14 06:10:14;;;;;;;12.53;11.40;;;9.10;99.90;;;;;;10394570;28;20659;-75
2023/12/14 06:15:16;;;;;;;20.20;13.77;;;9.10;99.90;;;;;;10408115;28;20213;-76
2023/12/14 06:20:19;;;;;;;11.80;10.80;;;9.00;99.90;;;;;;10408564;28;20221;-76
2023/12/14 06:25:22;;;;;;;9.97;9.27;;;9.00;99.90;;;;;;10407869;28;20209;-76
2023/12/14 06:30:25;;;;;;;10.60;9.90;;;9.00;99.90;;;;;;10408039;28;20324;-76
2023/12/14 06:35:27;;;;;;;8.07;7.40;;;9.00;99.90;;;;;;10407345;28;20644;-76
2023/12/14 06:40:31;;;;;;;10.57;9.77;;;9.10;99.90;;;;;;10408083;28;20222;-76
2023/12/14 06:45:33;;;;;;;9.50;8.80;;;9.00;99.90;;;;;;10406351;28;20252;-76
2023/12/14 06:50:35;;;;;;;10.00;9.10;;;9.10;99.90;;;;;;10406124;28;20261;-75
2023/12/14 06:55:39;;;;;;;9.20;8.40;;;9.10;99.90;;;;;;10398655;28;20617;-76
2023/12/14 07:00:41;;;;;;;11.43;10.40;;;9.10;99.90;;;;;;10405142;28;20229;-75
2023/12/14 07:05:44;;;;;;;11.40;10.50;;;9.20;99.90;;;;;;10387811;28;20194;-75
2023/12/14 07:10:47;;;;;;;9.10;8.20;;;9.10;99.90;;;;;;10404306;28;20262;-75
2023/12/14 07:15:50;;;;;;;13.33;12.30;;;9.20;99.90;;;;;;10404509;28;20328;-75
2023/12/14 07:20:52;;;;;;;12.70;11.50;;;9.20;99.90;;;;;;10405128;28;20237;-75
2023/12/14 07:25:56;;;;;;;10.00;9.10;;;9.30;99.90;;;;;;10404967;28;20206;-75
2023/12/14 07:30:58;;;;;;;12.63;11.37;;;9.30;99.90;;;;;;10386829;28;20296;-75
2023/12/14 07:36:00;;;;;;;10.40;9.67;;;9.30;99.90;;;;;;10410136;28;20505;-75
2023/12/14 07:41:04;;;;;;;13.40;12.27;;;9.30;99.90;;;;;;10412991;28;20654;-75
2023/12/14 07:46:07;;;;;;;12.07;10.93;;;9.30;99.90;;;;;;10412160;28;20197;-75
2023/12/14 07:51:09;;;;;;;10.50;9.60;;;9.30;99.90;;;;;;10412573;28;20229;-75
2023/12/14 07:56:13;;;;;;;10.87;10.07;;;9.30;99.90;;;;;;10411103;28;20667;-74
2023/12/14 08:01:15;;;;;;;9.63;8.97;;;9.30;99.90;;;;;;10412680;28;20715;-75
2023/12/14 08:06:18;;;;;;;7.57;6.97;;;9.30;99.90;;;;;;10411401;28;20197;-75
2023/12/14 08:11:21;;;;;;;9.60;8.90;;;9.30;99.90;;;;;;10411439;28;20206;-75
2023/12/14 08:16:24;;;;;;;9.53;8.83;;;9.30;99.90;;;;;;10410615;28;20628;-75
2023/12/14 08:21:26;;;;;;;10.93;10.10;;;9.30;99.90;;;;;;10410846;28;20694;-75
2023/12/14 08:26:30;;;;;;;9.67;8.80;;;9.40;99.90;;;;;;10410932;28;20201;-75
2023/12/14 08:31:32;;;;;;;9.67;8.97;;;9.40;99.90;;;;;;10409176;28;20237;-75
2023/12/14 08:36:34;;;;;;;10.40;9.47;;;9.50;99.90;;;;;;10388895;28;20202;-75
2023/12/14 08:41:38;;;;;;;11.13;10.23;;;9.50;99.90;;;;;;10407537;28;20283;-75
2023/12/14 08:46:41;;;;;;;10.10;9.30;;;9.60;99.90;;;;;;10404910;28;20232;-75
2023/12/14 08:51:44;;;;;;;11.50;10.60;;;9.60;99.90;;;;;;10404366;28;20233;-75
2023/12/14 08:56:48;;;;;;;10.70;9.90;;;9.60;99.90;;;;;;10406603;28;20205;-75
2023/12/14 09:01:50;;;;;;;10.97;9.93;;;9.60;99.90;;;;;;10390955;28;20237;-75
2023/12/14 09:06:53;;;;;;;10.53;9.73;;;9.70;99.90;;;;;;10408821;28;20210;-75
2023/12/14 09:11:58;;;;;;;11.83;10.93;;;9.70;99.90;;;;;;10408638;28;20222;-75
2023/12/14 09:17:00;;;;;;;11.27;10.37;;;9.80;99.90;;;;;;10410097;28;20697;-75
2023/12/14 09:22:02;;;;;;;11.37;10.43;;;9.90;99.90;;;;;;10409894;28;20249;-76
2023/12/14 09:27:06;;;;;;;10.53;9.63;;;9.90;99.90;;;;;;10409722;28;20252;-75
2023/12/14 09:32:09;;;;;;;10.10;9.27;;;10.00;99.90;;;;;;10409089;28;20233;-76
2023/12/14 09:37:14;;;;;;;10.23;9.23;;;10.00;99.90;;;;;;10409103;28;20699;-76
2023/12/14 09:42:20;;;;;;;10.50;9.60;;;10.00;99.90;;;;;;10409396;28;20226;-75
2023/12/14 09:47:22;;;;;;;13.60;8.77;;;10.10;99.90;;;;;;10408964;28;20694;-75
2023/12/14 09:52:24;;;;;;;10.60;9.60;;;10.20;99.90;;;;;;10408923;28;20217;-75
2023/12/14 09:57:28;;;;;;;10.53;9.63;;;10.20;99.90;;;;;;10408114;28;20276;-75
2023/12/14 10:02:31;;;;;;;12.30;11.20;;;10.20;99.90;;;;;;10408278;28;20238;-76
2023/12/14 10:07:33;;;;;;;12.80;11.10;;;10.20;99.90;;;;;;10408270;28;20247;-76
2023/12/14 10:12:52;;;;;;;12.37;11.27;;;10.20;99.90;;;;;;10406594;28;20217;-76
2023/12/14 10:17:57;;;;;;;11.37;10.40;;;10.30;99.90;;;;;;10407559;28;20287;-77
2023/12/14 10:22:59;;;;;;;12.27;10.40;;;10.40;99.90;;;;;;10407482;28;20221;-77
2023/12/14 10:28:03;;;;;;;11.87;10.67;;;10.40;99.90;;;;;;10406846;28;20201;-76
2023/12/14 10:33:06;;;;;;;14.07;12.63;;;10.40;99.90;;;;;;10373108;28;20252;-76
2023/12/14 10:38:09;;;;;;;12.10;11.00;;;10.50;99.90;;;;;;10389064;28;20230;-76
2023/12/14 10:43:13;;;;;;;14.73;11.60;;;10.60;99.90;;;;;;10407561;28;20225;-76
2023/12/14 10:48:20;;;;;;;12.20;11.07;;;10.70;99.90;;;;;;10406717;28;20240;-76
2023/12/14 10:53:22;;;;;;;11.50;10.40;;;10.90;99.90;;;;;;10406714;28;20221;-76
2023/12/14 10:58:26;;;;;;;11.50;10.50;;;11.00;99.90;;;;;;10406195;28;20629;-75
2023/12/14 11:03:34;;;;;;;11.00;9.90;;;11.00;99.90;;;;;;10405896;28;20236;-76
2023/12/14 11:08:38;;;;;;;9.63;8.63;;;11.10;99.90;;;;;;10390734;28;20200;-76
2023/12/14 11:13:42;;;;;;;9.17;8.37;;;11.10;99.90;;;;;;10396097;28;20233;-76
2023/12/14 11:18:44;;;;;;;9.63;8.70;;;11.10;99.90;;;;;;10397082;28;20228;-76
2023/12/14 11:23:50;;;;;;;9.57;8.10;;;11.10;99.90;;;;;;10414184;28;20218;-76
2023/12/14 11:28:55;;;;;;;9.17;8.43;;;11.10;99.90;;;;;;10414197;28;20190;-76
2023/12/14 11:33:57;;;;;;;12.37;9.27;;;11.10;99.90;;;;;;10413607;28;20205;-76
2023/12/14 11:39:00;;;;;;;10.50;9.40;;;11.10;99.90;;;;;;10413384;28;20230;-76
2023/12/14 11:44:04;;;;;;;12.83;9.50;;;11.00;99.90;;;;;;10413316;28;20222;-76
2023/12/14 11:49:06;;;;;;;11.30;10.30;;;11.00;99.90;;;;;;10412149;28;20201;-76
2023/12/14 11:54:09;;;;;;;10.27;9.27;;;11.00;99.90;;;;;;10412532;28;20222;-76
2023/12/14 11:59:14;;;;;;;9.60;8.60;;;11.00;99.90;;;;;;10413184;28;20232;-76
2023/12/14 12:04:18;;;;;;;9.70;8.80;;;11.00;99.90;;;;;;10395202;28;20765;-76
2023/12/14 12:09:37;;;;;;;9.77;8.90;;;11.00;99.90;;;;;;10393936;28;20252;-77
2023/12/14 12:14:41;;;;;;;7.97;7.30;;;11.00;99.90;;;;;;10412334;28;20691;-77
2023/12/14 12:19:44;;;;;;;6.90;6.20;;;11.00;99.90;;;;;;10412733;28;20683;-77
2023/12/14 12:24:46;;;;;;;4.70;4.30;;;11.10;99.90;;;;;;10411419;28;20221;-77
2023/12/14 12:29:53;;;;;;;4.80;4.50;;;11.00;99.90;;;;;;10394802;28;20733;-76
2023/12/14 12:34:55;;;;;;;5.07;4.63;;;11.00;99.90;;;;;;10411074;28;20210;-74
2023/12/14 12:39:58;;;;;;;4.30;3.93;;;10.90;99.90;;;;;;10411525;28;20206;-74
2023/12/14 12:45:01;;;;;;;4.83;3.73;;;10.90;99.90;;;;;;10410983;28;20221;-75
2023/12/14 12:50:05;;;;;;;3.50;3.30;;;10.80;99.90;;;;;;10411419;28;20667;-74
2023/12/14 12:55:09;;;;;;;3.77;3.53;;;10.70;99.90;;;;;;10409733;28;20224;-76
2023/12/14 13:00:13;;;;;;;4.23;3.73;;;10.70;99.90;;;;;;10393475;28;20214;-77
2023/12/14 13:05:16;;;;;;;4.73;3.20;;;10.60;99.90;;;;;;10405117;28;20206;-77
2023/12/14 13:10:19;;;;;;;3.20;3.00;;;10.60;99.90;;;;;;10409250;28;20614;-77
2023/12/14 13:15:24;;;;;;;3.37;3.10;;;10.60;99.90;;;;;;10410017;28;20551;-77
2023/12/14 13:20:26;;;;;;;3.17;2.97;;;10.60;99.90;;;;;;10410092;28;20679;-76
2023/12/14 13:25:29;;;;;;;3.20;2.90;;;10.50;99.90;;;;;;10409051;28;20552;-74
2023/12/14 13:30:32;;;;;;;3.30;3.10;;;10.50;99.90;;;;;;10408648;28;20248;-74
2023/12/14 13:35:35;;;;;;;3.30;3.00;;;10.40;99.90;;;;;;10391449;28;20718;-74
2023/12/14 13:40:37;;;;;;;3.30;3.10;;;10.30;99.90;;;;;;10409355;28;20427;-74
2023/12/14 13:45:41;;;;;;;7.80;3.23;;;10.20;99.90;;;;;;10408342;28;20209;-74
2023/12/14 13:50:44;;;;;;;3.63;3.33;;;10.20;99.90;;;;;;10389912;28;20228;-74
2023/12/14 13:55:48;;;;;;;7.63;3.40;;;10.10;99.90;;;;;;10408658;28;20202;-74
2023/12/14 14:00:52;;;;;;;3.70;3.40;;;10.00;99.90;;;;;;10431579;22;20229;-73
2023/12/14 14:05:55;;;;;;;4.10;3.80;;;10.00;99.90;;;;;;10414196;28;20209;-78
2023/12/14 14:10:57;;;;;;;6.90;4.93;;;9.90;99.90;;;;;;10432693;28;20190;-78
2023/12/14 14:16:02;;;;;;;6.33;5.80;;;9.90;99.90;;;;;;10425476;28;20205;-78
2023/12/14 14:21:07;;;;;;;7.67;6.17;;;9.90;99.90;;;;;;10437386;28;20282;-78
2023/12/14 14:26:09;;;;;;;10.33;6.70;;;9.90;99.90;;;;;;10434526;28;20254;-78
2023/12/14 14:31:13;;;;;;;9.13;8.23;;;9.90;99.90;;;;;;10435072;28;20239;-76
2023/12/14 14:36:15;;;;;;;10.97;9.77;;;9.90;99.90;;;;;;10438477;28;20278;-77
2023/12/14 14:41:19;;;;;;;9.70;8.70;;;9.90;99.90;;;;;;10435095;28;20241;-77
2023/12/14 14:46:23;;;;;;;13.17;10.97;;;10.00;99.90;;;;;;10435615;28;20189;-78
2023/12/14 14:51:26;;;;;;;12.63;10.07;;;10.00;99.90;;;;;;10433893;28;20625;-79
2023/12/14 14:56:29;;;;;;;12.40;11.10;;;9.90;99.90;;;;;;10439915;28;20192;-77
2023/12/14 15:01:32;;;;;;;12.67;11.17;;;9.90;99.90;;;;;;10438896;28;20221;-77
2023/12/14 15:06:35;;;;;;;12.73;11.37;;;9.80;99.90;;;;;;10439972;28;20232;-78
2023/12/14 15:11:37;;;;;;;17.73;12.00;;;9.80;99.90;;;;;;10441204;28;20221;-77
2023/12/14 15:16:41;;;;;;;16.03;11.40;;;9.80;99.90;;;;;;10441631;28;20266;-78
2023/12/14 15:21:43;;;;;;;12.93;11.30;;;9.90;99.90;;;;;;10440811;28;20225;-78
2023/12/14 15:26:45;;;;;;;14.20;12.70;;;9.90;99.90;;;;;;10442236;28;20217;-78
2023/12/14 15:31:52;;;;;;;16.90;13.40;;;9.90;99.90;;;;;;10435581;28;20223;-77
2023/12/14 15:36:54;;;;;;;14.40;12.63;;;9.90;99.90;;;;;;10437167;28;20235;-76
2023/12/14 15:41:57;;;;;;;15.33;13.10;;;9.90;99.90;;;;;;10393237;28;20227;-76
2023/12/14 15:47:00;;;;;;;16.83;13.43;;;9.90;99.90;;;;;;10403289;28;20198;-77
2023/12/14 15:52:03;;;;;;;19.63;13.23;;;10.00;99.90;;;;;;10387075;28;20218;-77
2023/12/14 15:57:06;;;;;;;16.20;12.93;;;9.90;99.90;;;;;;10389241;28;20249;-77
2023/12/14 16:02:10;;;;;;;15.60;12.23;;;9.90;99.90;;;;;;10390401;28;20299;-78
2023/12/14 16:07:13;;;;;;;14.40;11.10;;;9.90;99.90;;;;;;10408013;28;20194;-78
2023/12/14 16:12:15;;;;;;;14.00;11.30;;;9.90;99.90;;;;;;10415199;28;20268;-77
2023/12/14 16:17:19;;;;;;;16.00;13.67;;;10.00;99.90;;;;;;10411332;28;20680;-77
2023/12/14 16:22:21;;;;;;;13.17;11.87;;;9.90;99.90;;;;;;10410600;28;20222;-76
2023/12/14 16:27:24;;;;;;;14.00;11.10;;;10.00;99.90;;;;;;10420526;28;20205;-77
2023/12/14 16:32:27;;;;;;;12.97;11.57;;;10.00;99.90;;;;;;10418781;28;20217;-78
2023/12/14 16:37:30;;;;;;;14.93;11.53;;;10.00;99.90;;;;;;10419967;28;20244;-76
2023/12/14 16:42:33;;;;;;;13.13;11.20;;;10.00;99.90;;;;;;10414173;28;20234;-78
2023/12/14 16:47:37;;;;;;;13.50;10.80;;;10.00;99.90;;;;;;10405885;28;20221;-78
2023/12/14 16:52:39;;;;;;;13.57;11.70;;;10.00;99.90;;;;;;10406928;28;20230;-78
2023/12/14 16:57:42;;;;;;;13.30;10.80;;;10.10;99.90;;;;;;10419411;28;20705;-77
2023/12/14 17:02:45;;;;;;;14.57;11.20;;;10.00;99.90;;;;;;10396389;28;20269;-78
2023/12/14 17:07:48;;;;;;;13.90;11.63;;;10.00;99.90;;;;;;10403083;28;20567;-76
2023/12/14 17:12:50;;;;;;;10.77;9.13;;;9.90;99.90;;;;;;10415017;28;20209;-76
2023/12/14 17:17:54;;;;;;;9.93;8.93;;;9.80;99.90;;;;;;10409650;28;20630;-76
2023/12/14 17:22:56;;;;;;;9.70;8.53;;;9.70;99.90;;;;;;10411329;28;20642;-76
2023/12/14 17:27:59;;;;;;;8.23;7.53;;;9.50;99.90;;;;;;10404263;28;20190;-77
2023/12/14 17:33:05;;;;;;;9.07;8.37;;;9.40;99.90;;;;;;10397133;28;20218;-76
2023/12/14 17:38:09;;;;;;;9.20;8.50;;;9.40;99.90;;;;;;10406264;28;20209;-77
2023/12/14 17:43:11;;;;;;;8.50;7.70;;;9.30;99.90;;;;;;10410516;28;20307;-77
2023/12/14 17:48:15;;;;;;;9.20;8.40;;;9.20;99.90;;;;;;10406557;28;20640;-76
2023/12/14 17:53:17;;;;;;;9.73;8.27;;;9.20;99.90;;;;;;10410078;28;20226;-76
2023/12/14 17:58:19;;;;;;;7.50;6.90;;;9.10;99.90;;;;;;10409842;28;20209;-76
2023/12/14 18:03:23;;;;;;;8.40;7.70;;;9.20;99.90;;;;;;10407583;28;20222;-76
2023/12/14 18:08:26;;;;;;;8.57;7.97;;;9.20;99.90;;;;;;10405467;28;20202;-75
2023/12/14 18:13:28;;;;;;;9.47;8.77;;;9.20;99.90;;;;;;10407890;28;20201;-76
2023/12/14 18:18:32;;;;;;;9.17;8.47;;;9.10;99.90;;;;;;10402346;28;20198;-76
2023/12/14 18:23:34;;;;;;;12.17;11.13;;;9.10;99.90;;;;;;10409931;28;20225;-76
2023/12/14 18:28:37;;;;;;;10.80;9.80;;;9.10;99.90;;;;;;10409438;28;20205;-76
2023/12/14 18:33:40;;;;;;;12.70;11.50;;;9.10;99.90;;;;;;10416186;28;20214;-76
2023/12/14 18:38:43;;;;;;;10.10;9.13;;;9.00;99.90;;;;;;10417925;28;20204;-76
2023/12/14 18:43:45;;;;;;;12.40;11.17;;;9.00;99.90;;;;;;10418017;28;20715;-77
2023/12/14 18:48:49;;;;;;;12.17;10.33;;;8.90;99.90;;;;;;10415682;28;20233;-76
2023/12/14 18:53:52;;;;;;;14.77;13.37;;;8.90;99.90;;;;;;10414696;28;20237;-74
2023/12/14 18:58:54;;;;;;;15.03;13.53;;;8.90;99.90;;;;;;10415655;28;20291;-76
2023/12/14 19:03:57;;;;;;;16.30;13.80;;;8.80;99.90;;;;;;10415046;28;20280;-75
2023/12/14 19:09:00;;;;;;;16.63;15.03;;;8.80;99.90;;;;;;10414336;28;20207;-76
2023/12/14 19:14:02;;;;;;;18.33;15.50;;;8.80;99.90;;;;;;10413457;28;20781;-75
2023/12/14 19:19:06;;;;;;;17.60;14.67;;;8.80;99.90;;;;;;10402569;28;20210;-76
2023/12/14 19:24:09;;;;;;;16.83;14.80;;;8.80;99.90;;;;;;10412631;28;20221;-76
2023/12/14 19:29:12;;;;;;;15.43;13.33;;;8.70;99.90;;;;;;10414495;28;20205;-76
2023/12/14 19:34:15;;;;;;;15.53;14.03;;;8.70;99.90;;;;;;10419660;28;20222;-76
2023/12/14 19:39:19;;;;;;;14.47;13.00;;;8.60;99.90;;;;;;10413477;28;20679;-76
2023/12/14 19:44:21;;;;;;;13.70;12.50;;;8.60;99.90;;;;;;10418609;28;20737;-75
2023/12/14 19:49:27;;;;;;;14.60;13.10;;;8.60;99.90;;;;;;10417376;28;20202;-76
2023/12/14 19:54:29;;;;;;;14.20;12.67;;;8.50;99.90;;;;;;10416814;28;20586;-75
2023/12/14 19:59:32;;;;;;;18.43;13.90;;;8.50;99.90;;;;;;10416030;28;20569;-76
2023/12/14 20:04:35;;;;;;;16.73;13.77;;;8.50;99.90;;;;;;10414240;28;20653;-77
2023/12/14 20:09:38;;;;;;;14.87;12.13;;;8.50;99.90;;;;;;10412305;28;20250;-76
2023/12/14 20:14:40;;;;;;;13.97;12.57;;;8.50;99.90;;;;;;10411413;28;20230;-76
2023/12/14 20:19:44;;;;;;;13.40;12.00;;;8.50;99.90;;;;;;10409738;28;20190;-76
2023/12/14 20:24:47;;;;;;;14.50;13.00;;;8.50;99.90;;;;;;10409733;28;20224;-76
2023/12/14 20:29:50;;;;;;;13.53;12.10;;;8.50;99.90;;;;;;10410327;28;20206;-77
2023/12/14 20:34:54;;;;;;;12.97;11.67;;;8.50;99.90;;;;;;10401108;28;20548;-76
2023/12/14 20:39:56;;;;;;;11.07;8.80;;;8.50;99.90;;;;;;10409866;28;20214;-75
2023/12/14 20:44:58;;;;;;;11.20;10.10;;;8.40;99.90;;;;;;10408630;28;20230;-75
2023/12/14 20:50:02;;;;;;;10.27;9.27;;;8.50;99.90;;;;;;10407330;28;20568;-77
2023/12/14 20:55:06;;;;;;;9.50;8.60;;;8.40;99.90;;;;;;10412930;28;20239;-76
2023/12/14 21:00:09;;;;;;;9.60;8.60;;;8.40;99.90;;;;;;10408175;28;20202;-77
2023/12/14 21:05:13;;;;;;;9.30;8.40;;;8.30;99.90;;;;;;10387407;28;1059384;-77
2023/12/14 21:10:16;;;;;;;12.50;11.40;;;8.30;99.90;;;;;;10424232;28;20209;-77
2023/12/14 21:15:18;;;;;;;10.30;9.30;;;8.20;99.90;;;;;;10421211;28;20576;-76
2023/12/14 21:20:22;;;;;;;8.90;8.10;;;8.10;99.90;;;;;;10419498;28;20741;-76
2023/12/14 21:25:36;;;;;;;9.57;8.67;;;8.10;99.90;;;;;;10419618;28;20222;-77
2023/12/14 21:30:39;;;;;;;9.27;8.37;;;8.00;99.90;;;;;;10411767;28;20214;-77
2023/12/14 21:35:44;;;;;;;13.57;9.10;;;7.90;99.90;;;;;;10418051;28;20222;-77
2023/12/14 21:40:47;;;;;;;11.00;10.00;;;7.90;99.90;;;;;;10417061;28;20607;-77
2023/12/14 21:45:49;;;;;;;9.83;8.90;;;7.90;99.90;;;;;;10414770;28;20340;-76
2023/12/14 21:50:53;;;;;;;11.40;10.30;;;7.90;99.90;;;;;;10413957;28;20244;-77
2023/12/14 21:55:55;;;;;;;11.27;10.17;;;7.90;99.90;;;;;;10409370;28;20626;-77
2023/12/14 22:00:57;;;;;;;13.33;10.00;;;7.90;99.90;;;;;;10414683;28;20237;-76
2023/12/14 22:06:01;;;;;;;10.23;9.27;;;7.90;99.90;;;;;;10405246;28;20202;-76
2023/12/14 22:11:04;;;;;;;11.70;10.60;;;7.80;99.90;;;;;;10406369;28;20198;-76
2023/12/14 22:16:07;;;;;;;12.00;10.87;;;7.80;99.90;;;;;;10410754;28;20252;-77
2023/12/14 22:21:11;;;;;;;10.73;9.70;;;7.70;99.90;;;;;;10411821;28;20236;-77
2023/12/14 22:26:13;;;;;;;10.83;9.90;;;7.70;99.90;;;;;;10411021;28;20202;-76
2023/12/14 22:31:15;;;;;;;13.40;11.10;;;7.70;99.90;;;;;;10409952;28;20234;-77
2023/12/14 22:36:19;;;;;;;11.47;10.37;;;7.70;99.90;;;;;;10405755;28;20201;-77
2023/12/14 22:41:21;;;;;;;10.37;9.47;;;7.70;99.90;;;;;;10400955;28;20710;-77
2023/12/14 22:46:24;;;;;;;11.00;10.00;;;7.60;99.90;;;;;;10400246;28;20197;-77
2023/12/14 22:51:27;;;;;;;10.67;9.77;;;7.60;99.90;;;;;;10404308;28;20221;-77
2023/12/14 22:56:30;;;;;;;10.33;9.33;;;7.60;99.90;;;;;;10414380;28;20832;-76
2023/12/14 23:01:34;;;;;;;10.20;9.10;;;7.60;99.90;;;;;;10409257;28;20222;-77
2023/12/14 23:06:38;;;;;;;10.67;9.67;;;7.60;99.90;;;;;;10404180;28;20480;-77
2023/12/14 23:11:40;;;;;;;11.63;10.37;;;7.60;99.90;;;;;;10405104;28;20225;-77
2023/12/14 23:16:44;;;;;;;12.00;9.97;;;7.70;99.90;;;;;;10403371;28;20715;-77
2023/12/14 23:21:48;;;;;;;12.60;10.70;;;7.70;99.90;;;;;;10405378;28;20790;-77
2023/12/14 23:26:50;;;;;;;13.30;10.93;;;7.70;99.90;;;;;;10407116;28;20208;-77
2023/12/14 23:31:53;;;;;;;10.77;9.67;;;7.70;99.90;;;;;;10406273;28;20225;-77
2023/12/14 23:36:57;;;;;;;11.60;10.47;;;7.70;99.90;;;;;;10414815;28;20805;-76
2023/12/14 23:41:59;;;;;;;11.30;10.10;;;7.70;99.90;;;;;;10412403;28;20222;-77
2023/12/14 23:47:01;;;;;;;12.90;9.40;;;7.80;99.90;;;;;;10407146;28;21105;-77
2023/12/14 23:52:05;;;;;;;10.70;9.60;;;7.80;99.90;;;;;;10406881;28;20726;-77
2023/12/14 23:57:08;;;;;;;11.30;9.67;;;7.80;99.90;;;;;;10410559;28;20194;-77
